Time;durP1;ratioP1;P1;durP2;ratioP2;P2;SDS_P1;SDS_P2;PMS_P1;PMS_P2;Temp;Humidity;BMP_temperature;BMP_pressure;BME280_temperature;BME280_humidity;BME280_pressure;Samples;Min_cycle;Max_cycle;Signal;HPM_P1;HPM_P2
2022/12/11 00:02:01;;;;;;;0.82;0.82;;;;;;;3.55;78.29;97882.19;5034139;28;20045;-70
2022/12/11 00:04:32;;;;;;;1.35;1.25;;;;;;;3.57;78.72;97878.81;5016819;28;20041;-71
2022/12/11 00:07:00;;;;;;;2.22;2.03;;;;;;;3.57;78.59;97886.38;5034177;28;20074;-71
2022/12/11 00:09:29;;;;;;;4.95;4.55;;;;;;;3.34;78.09;97847.75;5034357;28;20046;-70
2022/12/11 00:11:58;;;;;;;0.88;0.88;;;;;;;3.46;78.76;97862.00;5034074;28;20515;-70
2022/12/11 00:14:26;;;;;;;0.50;0.50;;;;;;;3.56;78.46;97884.69;5016612;28;20156;-69
2022/12/11 00:16:55;;;;;;;0.60;0.60;;;;;;;3.57;78.52;97883.00;5033767;28;20044;-70
2022/12/11 00:19:24;;;;;;;1.90;1.80;;;;;;;3.46;78.03;97865.38;5033900;28;20049;-70
2022/12/11 00:21:54;;;;;;;0.50;0.50;;;;;;;3.49;78.46;97864.53;5033848;28;20124;-70
2022/12/11 00:24:23;;;;;;;1.85;1.40;;;;;;;3.52;78.63;97875.44;5033808;28;20049;-70
2022/12/11 00:26:52;;;;;;;3.75;2.75;;;;;;;3.53;78.67;97873.78;5034099;28;20095;-71
2022/12/11 00:29:20;;;;;;;1.37;1.27;;;;;;;3.46;78.40;97855.28;5034318;28;20075;-71
2022/12/11 00:31:49;;;;;;;0.80;0.80;;;;;;;3.53;78.67;97856.94;5034013;28;20377;-71
2022/12/11 00:34:18;;;;;;;2.28;2.13;;;;;;;3.53;78.41;97869.56;5033962;28;20083;-70
2022/12/11 00:36:46;;;;;;;1.20;1.10;;;;;;;3.51;78.13;97856.09;5033108;28;20140;-70
2022/12/11 00:39:16;;;;;;;3.60;2.67;;;;;;;3.50;78.61;97861.16;5033839;28;20042;-70
2022/12/11 00:41:46;;;;;;;0.70;0.70;;;;;;;3.47;77.80;97856.97;5033675;28;20376;-69
2022/12/11 00:44:14;;;;;;;0.87;0.87;;;;;;;3.49;78.09;97860.31;5033459;28;20095;-70
2022/12/11 00:46:43;;;;;;;0.88;0.88;;;;;;;3.43;77.91;97850.28;5033865;28;20507;-70
2022/12/11 00:49:12;;;;;;;0.77;0.77;;;;;;;3.45;78.12;97858.66;5033582;28;20041;-70
2022/12/11 00:51:40;;;;;;;1.90;1.40;;;;;;;3.44;78.31;97866.22;5033493;28;20786;-70
2022/12/11 00:54:09;;;;;;;1.35;1.25;;;;;;;3.34;77.92;97857.81;5033679;28;20038;-71
2022/12/11 00:56:39;;;;;;;4.65;2.47;;;;;;;3.43;77.99;97860.34;5033579;28;20037;-70
2022/12/11 00:59:08;;;;;;;0.80;0.80;;;;;;;3.47;77.95;97861.16;5033475;28;20060;-71
2022/12/11 01:01:37;;;;;;;1.67;1.57;;;;;;;3.49;77.37;97862.00;5033419;28;20047;-71
2022/12/11 01:04:07;;;;;;;0.60;0.60;;;;;;;3.48;77.91;97853.59;5033372;28;20099;-71
2022/12/11 01:06:36;;;;;;;0.93;0.93;;;;;;;3.44;77.39;97849.41;5033392;28;20060;-71
2022/12/11 01:11:44;;;;;;;0.40;0.40;;;;;;;3.43;77.82;97860.34;5037422;28;20076;-70
2022/12/11 01:14:13;;;;;;;3.05;2.47;;;;;;;3.44;77.55;97867.06;5037551;28;20052;-70
2022/12/11 01:16:42;;;;;;;0.80;0.80;;;;;;;3.45;77.05;97858.66;5037577;28;20068;-71
2022/12/11 01:19:10;;;;;;;1.87;1.77;;;;;;;3.45;77.10;97867.91;5037245;28;20049;-69
2022/12/11 01:21:39;;;;;;;0.60;0.60;;;;;;;3.39;77.60;97853.63;5037162;28;20053;-70
2022/12/11 01:24:08;;;;;;;0.50;0.50;;;;;;;3.40;77.19;97867.91;5037442;28;20128;-70
2022/12/11 01:26:37;;;;;;;0.85;0.85;;;;;;;3.35;76.70;97857.00;5037099;28;20079;-71
2022/12/11 01:29:07;;;;;;;0.77;0.77;;;;;;;3.36;76.74;97868.75;5037098;28;20041;-71
2022/12/11 01:31:36;;;;;;;1.38;1.27;;;;;;;3.36;76.66;97863.69;5037347;28;20053;-71
2022/12/11 01:34:05;;;;;;;1.45;1.35;;;;;;;3.36;76.73;97871.25;5036968;28;20124;-73
2022/12/11 01:36:33;;;;;;;0.88;0.88;;;;;;;3.29;77.13;97862.88;5036763;28;20054;-71
2022/12/11 01:39:02;;;;;;;1.67;1.58;;;;;;;3.35;76.41;97865.41;5019569;28;20046;-70
2022/12/11 01:41:31;;;;;;;0.82;0.82;;;;;;;3.35;76.80;97862.03;5019374;28;20046;-70
2022/12/11 01:44:03;;;;;;;0.55;0.55;;;;;;;3.11;76.43;97820.06;5037128;28;20037;-71
2022/12/11 01:46:35;;;;;;;1.10;1.00;;;;;;;3.30;76.42;97863.72;5036467;28;20061;-70
2022/12/11 01:49:07;;;;;;;0.60;0.60;;;;;;;3.30;76.65;97854.47;5036734;28;20072;-70
2022/12/11 01:51:41;;;;;;;1.77;0.80;;;;;;;3.30;76.72;97858.69;5037058;28;20095;-71
2022/12/11 01:54:13;;;;;;;1.20;1.10;;;;;;;3.26;76.81;97872.13;5037004;28;20050;-71
2022/12/11 01:56:45;;;;;;;0.57;0.57;;;;;;;3.26;76.54;97869.63;5036476;28;20075;-71
2022/12/11 01:59:18;;;;;;;0.25;0.25;;;;;;;3.23;76.86;97850.31;5036910;28;20552;-71
2022/12/11 02:01:55;;;;;;;0.70;0.70;;;;;;;3.24;76.40;97853.63;5036520;28;20076;-71
2022/12/11 02:04:24;;;;;;;0.80;0.80;;;;;;;3.15;76.69;97844.41;5036762;28;20443;-71
2022/12/11 02:06:53;;;;;;;2.03;1.25;;;;;;;3.21;76.37;97868.78;5036355;28;20057;-72
2022/12/11 02:09:25;;;;;;;1.73;1.63;;;;;;;3.20;76.25;97867.09;5036909;28;20135;-70
2022/12/11 02:12:02;;;;;;;0.70;0.70;;;;;;;3.20;76.73;97867.09;5036318;28;20053;-70
2022/12/11 02:14:39;;;;;;;1.55;1.42;;;;;;;3.22;76.50;97870.44;5036238;28;20053;-71
2022/12/11 02:17:14;;;;;;;1.38;1.27;;;;;;;3.20;76.19;97877.16;5018491;28;20049;-71
2022/12/11 02:20:02;;;;;;;0.52;0.52;;;;;;;3.18;76.48;97873.81;5018583;28;20091;-71
2022/12/11 02:22:52;;;;;;;0.73;0.73;;;;;;;3.19;76.51;97885.59;5036211;28;20555;-71
2022/12/11 02:25:26;;;;;;;0.80;0.80;;;;;;;3.16;76.99;97883.91;5036095;28;20041;-71
2022/12/11 02:28:06;;;;;;;0.80;0.80;;;;;;;3.14;76.73;97877.19;5036314;28;20037;-71
2022/12/11 02:30:40;;;;;;;0.63;0.63;;;;;;;3.16;76.13;97872.97;5036303;28;20045;-71
2022/12/11 02:33:12;;;;;;;1.38;1.27;;;;;;;3.16;76.15;97865.41;5035970;28;20053;-72
2022/12/11 02:35:44;;;;;;;1.13;1.08;;;;;;;3.16;76.92;97865.41;5036181;28;20398;-71
2022/12/11 02:38:17;;;;;;;1.83;1.73;;;;;;;3.13;76.03;97875.50;5035795;28;20049;-71
2022/12/11 02:40:49;;;;;;;5.25;2.25;;;;;;;3.14;76.62;97867.94;5035775;28;20057;-71
2022/12/11 02:43:22;;;;;;;1.25;1.17;;;;;;;3.03;76.06;97862.06;5035752;28;20072;-71
2022/12/11 02:45:53;;;;;;;0.88;0.88;;;;;;;3.09;76.87;97869.63;5035996;28;20447;-71
2022/12/11 02:48:24;;;;;;;2.25;2.05;;;;;;;3.12;76.23;97887.25;5035333;28;20128;-72
2022/12/11 02:50:57;;;;;;;0.50;0.50;;;;;;;3.13;76.50;97880.53;5035622;28;20529;-71
2022/12/11 02:53:31;;;;;;;0.75;0.75;;;;;;;3.10;76.27;97878.84;5035851;28;20514;-71
2022/12/11 02:56:04;;;;;;;0.80;0.80;;;;;;;3.11;76.63;97877.19;5035427;28;20144;-71
2022/12/11 02:58:38;;;;;;;1.10;1.10;;;;;;;3.11;75.85;97882.22;5035450;28;20060;-72
2022/12/11 03:01:06;;;;;;;1.65;1.50;;;;;;;3.09;76.44;97886.44;5018023;28;20045;-71
2022/12/11 03:03:35;;;;;;;1.83;0.95;;;;;;;3.10;76.25;97880.53;5035394;28;20522;-70
2022/12/11 03:06:04;;;;;;;0.70;0.70;;;;;;;3.09;76.54;97868.78;5035656;28;20029;-71
2022/12/11 03:08:33;;;;;;;1.13;1.10;;;;;;;3.08;76.15;97867.09;5035209;28;20129;-70
2022/12/11 03:11:01;;;;;;;1.70;1.57;;;;;;;3.05;76.87;97877.16;5035170;28;20044;-70
2022/12/11 03:13:30;;;;;;;1.45;1.35;;;;;;;3.06;76.54;97882.22;5035402;28;20037;-70
2022/12/11 03:16:10;;;;;;;1.17;1.13;;;;;;;3.06;76.47;97858.72;5035124;28;20045;-71
2022/12/11 03:18:49;;;;;;;0.82;0.82;;;;;;;3.06;76.37;97868.78;5035304;28;20515;-70
2022/12/11 03:21:27;;;;;;;9.30;1.52;;;;;;;2.97;76.85;97856.19;5035019;28;20495;-71
2022/12/11 03:24:03;;;;;;;0.95;0.95;;;;;;;3.06;76.09;97859.56;5035276;28;20068;-69
2022/12/11 03:26:36;;;;;;;1.95;1.48;;;;;;;3.05;77.10;97862.06;5034925;28;20058;-70
2022/12/11 03:29:09;;;;;;;1.55;1.45;;;;;;;3.03;76.28;97851.13;5035056;28;20084;-72
2022/12/11 03:31:44;;;;;;;1.58;1.48;;;;;;;2.99;76.22;97864.59;5034945;28;20033;-71
2022/12/11 03:34:19;;;;;;;0.80;0.80;;;;;;;3.02;76.47;97862.06;5034502;28;20038;-71
2022/12/11 03:36:50;;;;;;;1.58;1.48;;;;;;;3.01;77.15;97865.41;5034681;28;20095;-71
2022/12/11 03:39:25;;;;;;;1.15;1.08;;;;;;;2.98;76.60;97870.44;5034645;28;20059;-72
2022/12/11 03:41:55;;;;;;;0.77;0.77;;;;;;;2.96;76.92;97864.59;5035205;28;20049;-71
2022/12/11 03:44:25;;;;;;;1.77;1.05;;;;;;;2.94;76.93;97868.78;5034585;28;20077;-70
2022/12/11 03:46:57;;;;;;;0.90;0.90;;;;;;;2.94;77.61;97871.31;5034215;28;20060;-71
2022/12/11 03:49:31;;;;;;;0.60;0.60;;;;;;;2.95;77.39;97865.44;5034485;28;20045;-71
2022/12/11 03:52:03;;;;;;;0.88;0.88;;;;;;;2.91;77.06;97869.63;5034733;28;20053;-70
2022/12/11 03:54:33;;;;;;;2.97;1.52;;;;;;;2.90;77.75;97865.44;5034378;28;20132;-71
2022/12/11 03:57:04;;;;;;;0.95;0.95;;;;;;;2.92;77.53;97870.47;5034766;28;20099;-71
2022/12/11 03:59:33;;;;;;;1.77;1.67;;;;;;;2.90;77.86;97867.13;5034557;28;20045;-72
2022/12/11 04:02:09;;;;;;;0.82;0.82;;;;;;;2.83;77.05;97856.22;5034251;28;20057;-71
2022/12/11 04:04:40;;;;;;;0.85;0.85;;;;;;;2.87;77.12;97862.06;5034171;28;20124;-72
2022/12/11 04:07:09;;;;;;;2.03;1.85;;;;;;;2.83;77.06;97862.91;5034467;28;20069;-72
2022/12/11 04:09:38;;;;;;;1.02;0.95;;;;;;;2.80;76.98;97865.44;5034048;28;20072;-70
2022/12/11 04:12:07;;;;;;;0.60;0.60;;;;;;;2.77;78.03;97862.91;5034034;28;20096;-71
2022/12/11 04:24:13;;;;;;;2.90;1.40;;;;;;;2.79;77.88;97858.69;5034259;28;20044;-70
2022/12/11 04:25:31;;;;;;;1.50;1.40;;;;;;;2.78;77.64;97852.00;5034472;28;20049;-71
2022/12/11 04:27:59;;;;;;;1.30;1.20;;;;;;;2.72;77.52;97853.69;5033808;28;20046;-70
2022/12/11 04:30:28;;;;;;;0.73;0.73;;;;;;;2.73;78.33;97855.34;5034039;28;20049;-70
2022/12/11 04:33:03;;;;;;;1.50;1.40;;;;;;;2.75;77.52;97859.53;5016218;28;20065;-71
2022/12/11 04:35:32;;;;;;;0.50;0.50;;;;;;;2.76;78.41;97858.72;5033720;28;20128;-70
2022/12/11 04:38:01;;;;;;;0.70;0.70;;;;;;;2.75;77.85;97862.91;5033848;28;20495;-70
2022/12/11 04:40:29;;;;;;;0.98;0.98;;;;;;;2.75;78.34;97870.47;5033816;28;20391;-70
2022/12/11 04:42:58;;;;;;;1.27;1.17;;;;;;;2.70;78.16;97865.44;5033564;28;20040;-69
2022/12/11 04:45:27;;;;;;;0.60;0.60;;;;;;;2.70;77.71;97878.03;5033324;28;20037;-71
2022/12/11 04:47:55;;;;;;;0.70;0.70;;;;;;;2.71;77.85;97892.28;5033469;28;20060;-69
2022/12/11 04:50:27;;;;;;;0.90;0.90;;;;;;;2.75;78.19;97895.66;5016182;28;20041;-70
2022/12/11 04:52:57;;;;;;;0.88;0.88;;;;;;;2.76;77.56;97893.97;5033442;28;20045;-73
2022/12/11 04:55:25;;;;;;;0.80;0.75;;;;;;;2.76;77.93;97899.00;5033398;28;20041;-71
2022/12/11 04:57:55;;;;;;;0.60;0.60;;;;;;;2.73;77.29;97905.69;5033359;28;20061;-70
2022/12/11 05:00:24;;;;;;;0.60;0.60;;;;;;;2.77;77.76;97908.22;5033459;28;20101;-71
2022/12/11 05:02:52;;;;;;;1.53;1.43;;;;;;;2.75;77.32;97909.91;5033579;28;20038;-70
2022/12/11 05:05:21;;;;;;;0.88;0.88;;;;;;;2.75;77.46;97917.47;5033353;28;20137;-70
2022/12/11 05:07:51;;;;;;;1.30;1.20;;;;;;;2.76;76.63;97912.41;5033944;28;20408;-71
2022/12/11 05:10:23;;;;;;;0.75;0.75;;;;;;;2.79;76.91;97916.63;5033369;28;20052;-70
2022/12/11 05:12:52;;;;;;;0.50;0.50;;;;;;;2.78;76.82;97907.41;5033174;28;20499;-69
2022/12/11 05:15:21;;;;;;;5.53;2.38;;;;;;;2.80;76.71;97913.28;5033838;28;20419;-70
2022/12/11 05:17:49;;;;;;;0.73;0.73;;;;;;;2.79;76.19;97914.94;5033163;28;20069;-70
2022/12/11 05:20:18;;;;;;;1.75;1.25;;;;;;;2.81;76.58;97907.41;5033187;28;20037;-71
2022/12/11 05:22:47;;;;;;;0.77;0.77;;;;;;;2.82;76.25;97925.03;5033133;28;20052;-70
2022/12/11 05:25:17;;;;;;;1.65;1.40;;;;;;;2.82;75.98;97914.13;5033221;28;20038;-70
2022/12/11 05:27:46;;;;;;;0.60;0.60;;;;;;;2.78;75.81;97923.38;5033506;28;20065;-71
2022/12/11 05:30:15;;;;;;;1.13;1.13;;;;;;;2.83;75.83;97915.81;5033115;28;20041;-71
2022/12/11 05:32:43;;;;;;;0.93;0.93;;;;;;;2.84;75.51;97922.50;5015598;28;20055;-70
2022/12/11 05:35:14;;;;;;;2.42;0.90;;;;;;;2.86;75.16;97919.16;5015501;28;20479;-71
2022/12/11 05:37:43;;;;;;;0.70;0.70;;;;;;;2.86;75.27;97920.81;5033543;28;20376;-71
2022/12/11 05:40:13;;;;;;;0.40;0.40;;;;;;;2.87;75.10;97927.56;5033603;28;20480;-71
2022/12/11 05:42:43;;;;;;;0.85;0.85;;;;;;;2.88;75.30;97934.28;5033017;28;20056;-71
2022/12/11 05:45:12;;;;;;;2.35;2.15;;;;;;;2.89;75.08;97943.50;5033382;28;20553;-70
2022/12/11 05:47:41;;;;;;;0.70;0.70;;;;;;;2.88;74.58;97944.38;5032897;28;20526;-70
2022/12/11 05:50:10;;;;;;;1.00;1.00;;;;;;;2.89;74.93;97953.59;5033006;28;20041;-70
2022/12/11 05:52:39;;;;;;;1.17;1.13;;;;;;;2.91;74.96;97960.31;5015616;28;20403;-71
2022/12/11 05:55:08;;;;;;;1.00;1.00;;;;;;;2.91;75.09;97964.50;5033035;28;20049;-70
2022/12/11 05:57:37;;;;;;;2.05;1.95;;;;;;;2.91;74.83;97965.34;5036352;28;20049;-70
2022/12/11 06:00:10;;;;;;;1.70;1.10;;;;;;;2.90;73.79;97972.91;5036642;28;20041;-69
2022/12/11 06:02:38;;;;;;;0.70;0.70;;;;;;;2.91;74.49;97964.50;5036601;28;20491;-70
2022/12/11 06:05:08;;;;;;;1.35;1.25;;;;;;;2.90;74.45;97968.72;5036708;28;20491;-70
2022/12/11 06:07:36;;;;;;;;;;;;;;;2.91;73.90;97979.63;5036707;28;20044;-70
2022/12/11 06:10:06;;;;;;;3.25;0.98;;;;;;;2.91;73.90;97979.63;5036345;28;19921;-69
2022/12/11 06:12:35;;;;;;;1.23;1.13;;;;;;;2.91;73.83;97974.56;5036564;28;20053;-70
2022/12/11 06:15:04;;;;;;;0.50;0.50;;;;;;;2.88;73.71;97975.41;5036307;28;20400;-69
2022/12/11 06:17:35;;;;;;;0.50;0.50;;;;;;;2.93;73.66;97983.00;5036317;28;20397;-70
2022/12/11 06:20:06;;;;;;;0.70;0.70;;;;;;;2.91;73.46;97987.16;5036215;28;20495;-70
2022/12/11 06:22:35;;;;;;;0.40;0.40;;;;;;;2.90;73.86;97998.09;5036128;28;20048;-70
2022/12/11 06:25:04;;;;;;;0.77;0.77;;;;;;;2.89;73.55;98007.31;5036008;28;20042;-70
2022/12/11 06:27:32;;;;;;;0.55;0.55;;;;;;;2.89;73.90;98007.31;5036490;28;20080;-69
2022/12/11 06:30:01;;;;;;;0.63;0.63;;;;;;;2.88;74.08;98009.84;5035884;28;20045;-70
2022/12/11 06:32:30;;;;;;;1.23;1.15;;;;;;;2.87;73.47;98013.19;5035921;28;20045;-70
2022/12/11 06:35:00;;;;;;;0.30;0.30;;;;;;;2.85;73.23;98008.16;5035886;28;20124;-71
2022/12/11 06:37:28;;;;;;;0.85;0.85;;;;;;;2.86;73.02;98008.97;5035895;28;20057;-72
2022/12/11 06:39:57;;;;;;;1.58;1.48;;;;;;;2.86;72.96;98002.28;5035817;28;20554;-71
2022/12/11 06:42:26;;;;;;;0.35;0.35;;;;;;;2.87;72.68;98008.16;5018445;28;20546;-71
2022/12/11 06:44:56;;;;;;;0.90;0.90;;;;;;;2.86;73.07;98012.34;5015156;28;20044;-70
2022/12/11 06:47:24;;;;;;;0.50;0.50;;;;;;;2.83;72.90;98004.81;5015134;28;20557;-71
2022/12/11 06:49:53;;;;;;;0.50;0.50;;;;;;;2.73;73.39;97990.50;5015736;28;20080;-70
2022/12/11 06:52:26;;;;;;;1.50;1.40;;;;;;;2.77;73.23;97996.38;5015696;28;20053;-69
2022/12/11 06:54:55;;;;;;;0.50;0.50;;;;;;;2.77;73.47;98002.25;5015681;28;20053;-69
2022/12/11 06:57:24;;;;;;;0.60;0.60;;;;;;;2.65;73.60;97993.00;5015911;28;20511;-71
2022/12/11 06:59:52;;;;;;;0.95;0.95;;;;;;;2.70;73.80;98011.47;5015783;28;20318;-72
2022/12/11 07:02:21;;;;;;;1.30;1.02;;;;;;;2.63;73.28;98003.91;5015873;28;20465;-69
2022/12/11 07:04:50;;;;;;;0.52;0.52;;;;;;;2.68;74.13;98018.19;5015576;28;20092;-70
2022/12/11 07:07:24;;;;;;;1.00;0.93;;;;;;;2.71;73.52;98023.22;5015705;28;20042;-69
2022/12/11 07:09:53;;;;;;;0.43;0.43;;;;;;;2.72;74.00;98029.94;5015497;28;20066;-70
2022/12/11 07:12:21;;;;;;;0.57;0.57;;;;;;;2.52;73.24;97995.47;5015311;28;20065;-70
2022/12/11 07:14:50;;;;;;;0.50;0.50;;;;;;;2.70;73.54;98036.66;5015940;28;20404;-70
2022/12/11 07:17:18;;;;;;;0.53;0.53;;;;;;;2.67;73.47;98040.84;5015268;28;20045;-70
2022/12/11 07:19:47;;;;;;;1.17;1.08;;;;;;;2.70;73.14;98043.38;5015184;28;20124;-69
2022/12/11 07:22:16;;;;;;;0.57;0.57;;;;;;;2.73;73.75;98051.75;5015502;28;20034;-70
2022/12/11 07:24:46;;;;;;;1.08;1.02;;;;;;;2.75;72.89;98054.31;5015167;28;20042;-70
2022/12/11 07:27:14;;;;;;;0.47;0.47;;;;;;;2.77;72.96;98054.31;5015198;28;20049;-70
2022/12/11 07:29:43;;;;;;;0.80;0.80;;;;;;;2.78;73.58;98063.56;5015268;28;20046;-70
2022/12/11 07:32:13;;;;;;;0.70;0.70;;;;;;;2.78;73.08;98063.56;5015626;28;20076;-71
2022/12/11 07:34:42;;;;;;;1.85;1.25;;;;;;;2.80;72.78;98066.91;4997745;28;20235;-71
2022/12/11 07:37:18;;;;;;;0.75;0.75;;;;;;;2.80;72.29;98059.34;5014941;28;20045;-70
2022/12/11 07:39:47;;;;;;;0.50;0.50;;;;;;;2.81;71.79;98043.41;5014779;28;20049;-71
2022/12/11 07:42:16;;;;;;;0.65;0.65;;;;;;;2.84;71.90;98061.03;5014800;28;20287;-69
2022/12/11 07:44:45;;;;;;;0.47;0.47;;;;;;;2.87;71.97;98054.34;5014781;28;20137;-71
2022/12/11 07:47:14;;;;;;;0.77;0.77;;;;;;;2.86;71.83;98066.91;5014441;28;20589;-69
2022/12/11 07:49:43;;;;;;;0.60;0.60;;;;;;;2.87;71.72;98071.13;5015033;28;20057;-71
2022/12/11 07:52:11;;;;;;;0.52;0.52;;;;;;;2.88;70.86;98080.38;5014714;28;20369;-70
2022/12/11 07:54:40;;;;;;;0.70;0.70;;;;;;;2.86;71.05;98082.88;5014623;28;20046;-71
2022/12/11 07:57:10;;;;;;;0.60;0.60;;;;;;;2.87;70.58;98076.16;5014580;28;20038;-71
2022/12/11 07:59:41;;;;;;;0.50;0.50;;;;;;;2.87;70.69;98083.72;5014542;28;20034;-71
2022/12/11 08:02:11;;;;;;;2.45;0.95;;;;;;;2.79;70.29;98065.22;5014821;28;20129;-70
2022/12/11 08:04:39;;;;;;;0.50;0.50;;;;;;;2.87;70.37;98089.63;5014674;28;20451;-71
2022/12/11 08:07:08;;;;;;;0.50;0.50;;;;;;;2.90;70.46;98099.72;5014307;28;20504;-70
2022/12/11 08:09:37;;;;;;;0.60;0.60;;;;;;;2.91;70.48;98100.53;5014373;28;20045;-70
2022/12/11 08:12:06;;;;;;;0.50;0.50;;;;;;;2.87;70.06;98109.75;5014629;28;20045;-69
2022/12/11 08:14:36;;;;;;;0.50;0.50;;;;;;;2.88;70.06;98108.09;5014554;28;20054;-69
2022/12/11 08:17:05;;;;;;;0.50;0.50;;;;;;;2.87;69.94;98113.94;5014172;28;20092;-69
2022/12/11 08:19:34;;;;;;;0.40;0.40;;;;;;;2.91;69.96;98100.53;5013647;28;20046;-70
2022/12/11 08:22:03;;;;;;;0.50;0.50;;;;;;;2.93;70.31;98108.97;5014113;28;20042;-70
2022/12/11 08:24:31;;;;;;;0.50;0.50;;;;;;;2.91;69.94;98115.63;5014111;28;20129;-69
2022/12/11 08:27:00;;;;;;;0.50;0.50;;;;;;;2.90;69.61;98119.00;5014047;28;20287;-69
2022/12/11 08:29:29;;;;;;;0.50;0.50;;;;;;;2.87;69.83;98121.50;5014453;28;20049;-69
2022/12/11 08:31:59;;;;;;;1.30;1.30;;;;;;;2.90;69.65;98108.94;5014287;28;20043;-70
2022/12/11 08:34:28;;;;;;;0.68;0.68;;;;;;;2.91;69.35;98125.72;5014264;28;20467;-70
2022/12/11 08:36:57;;;;;;;1.20;0.90;;;;;;;2.89;69.14;98123.19;5014821;28;20480;-70
2022/12/11 08:39:26;;;;;;;0.50;0.50;;;;;;;2.90;69.08;98126.56;5013745;28;20053;-70
2022/12/11 08:41:56;;;;;;;;;;;;;;;2.92;69.78;98127.41;5014322;28;20136;-71
2022/12/11 08:44:25;;;;;;;0.83;0.83;;;;;;;2.87;69.80;98129.06;5025647;28;19928;-70
2022/12/11 08:46:54;;;;;;;0.40;0.40;;;;;;;2.87;68.90;98132.44;5033612;28;20322;-71
2022/12/11 08:49:25;;;;;;;1.30;1.27;;;;;;;2.88;69.70;98140.84;5033777;28;20472;-70
2022/12/11 08:52:00;;;;;;;0.70;0.70;;;;;;;2.90;69.93;98136.66;5033757;28;20076;-70
2022/12/11 08:54:28;;;;;;;0.85;0.80;;;;;;;2.91;69.21;98146.72;5033751;28;20049;-70
2022/12/11 08:56:57;;;;;;;0.60;0.60;;;;;;;2.91;69.60;98145.88;5033689;28;20092;-71
2022/12/11 08:59:26;;;;;;;0.67;0.67;;;;;;;2.87;69.54;98154.25;5033343;28;20038;-69
2022/12/11 09:01:55;;;;;;;0.75;0.75;;;;;;;2.84;69.58;98149.19;5033341;28;20286;-71
2022/12/11 09:04:25;;;;;;;1.25;1.15;;;;;;;2.85;68.65;98155.94;5033350;28;20128;-70
2022/12/11 09:06:54;;;;;;;0.60;0.60;;;;;;;2.85;68.78;98150.91;5033731;28;20053;-70
2022/12/11 09:09:23;;;;;;;0.50;0.50;;;;;;;2.85;69.55;98153.41;5033371;28;20409;-70
2022/12/11 09:11:51;;;;;;;0.65;0.65;;;;;;;2.83;69.05;98137.47;5033295;28;20048;-71
2022/12/11 09:14:20;;;;;;;0.90;0.90;;;;;;;2.93;69.26;98149.25;5015623;28;20121;-70
2022/12/11 09:16:49;;;;;;;0.50;0.50;;;;;;;2.93;69.27;98145.03;5033315;28;20044;-69
2022/12/11 09:19:17;;;;;;;0.47;0.47;;;;;;;3.04;69.18;98152.66;5033101;28;20045;-69
2022/12/11 09:21:47;;;;;;;0.40;0.40;;;;;;;3.06;69.29;98158.53;5033123;28;20056;-70
2022/12/11 09:24:16;;;;;;;0.68;0.68;;;;;;;3.09;68.66;98163.59;5033243;28;20144;-70
2022/12/11 09:26:46;;;;;;;0.60;0.60;;;;;;;3.13;68.54;98162.78;5033155;28;20065;-68
2022/12/11 09:29:14;;;;;;;0.60;0.60;;;;;;;3.16;68.77;98167.84;5033173;28;20046;-69
2022/12/11 09:31:43;;;;;;;0.98;0.98;;;;;;;3.18;68.68;98158.59;5035674;28;20531;-70
2022/12/11 09:34:13;;;;;;;0.63;0.63;;;;;;;2.96;68.51;98129.94;5037098;28;20049;-69
2022/12/11 09:36:44;;;;;;;0.80;0.80;;;;;;;3.20;68.49;98164.47;5037267;28;20052;-70
2022/12/11 09:39:16;;;;;;;0.50;0.50;;;;;;;3.03;68.65;98135.84;5036958;28;20373;-69
2022/12/11 09:41:55;;;;;;;0.90;0.80;;;;;;;3.08;68.41;98136.72;5037169;28;20049;-69
2022/12/11 09:44:43;;;;;;;0.60;0.60;;;;;;;3.29;68.38;98165.34;5036865;28;20403;-70
2022/12/11 09:47:22;;;;;;;0.85;0.85;;;;;;;3.27;68.90;98156.09;5036762;28;20061;-69
2022/12/11 09:50:02;;;;;;;0.80;0.80;;;;;;;3.32;68.89;98164.53;5037099;28;20533;-72
2022/12/11 09:52:37;;;;;;;1.20;0.70;;;;;;;3.26;68.55;98159.47;5036711;28;20052;-69
2022/12/11 09:55:15;;;;;;;0.55;0.55;;;;;;;3.25;68.15;98157.78;5036996;28;20042;-70
2022/12/11 09:57:55;;;;;;;0.95;0.95;;;;;;;3.25;68.10;98152.75;5036932;28;20115;-69
2022/12/11 10:00:32;;;;;;;0.50;0.50;;;;;;;3.26;68.67;98136.78;5036523;28;20046;-69
2022/12/11 10:03:26;;;;;;;0.70;0.70;;;;;;;3.18;68.38;98123.31;5036583;28;20045;-69
2022/12/11 10:06:04;;;;;;;0.70;0.60;;;;;;;3.17;68.71;98124.13;5036715;28;20099;-69
2022/12/11 10:08:39;;;;;;;0.50;0.50;;;;;;;3.22;68.83;98142.63;5036754;28;20057;-69
2022/12/11 10:11:33;;;;;;;2.72;1.25;;;;;;;3.16;68.20;98142.63;5036336;28;20045;-69
2022/12/11 10:14:08;;;;;;;1.73;1.63;;;;;;;3.16;68.43;98135.91;5036595;28;20056;-69
2022/12/11 10:16:41;;;;;;;0.70;0.70;;;;;;;3.16;68.70;98135.06;5036294;28;20554;-71
2022/12/11 10:19:17;;;;;;;0.95;0.95;;;;;;;3.16;68.56;98132.56;5036214;28;20049;-69
2022/12/11 10:21:47;;;;;;;2.63;2.05;;;;;;;3.16;68.47;98127.50;5036142;28;20042;-69
2022/12/11 10:24:20;;;;;;;0.57;0.57;;;;;;;3.21;68.24;98130.88;5036382;28;20064;-69
2022/12/11 10:27:18;;;;;;;1.20;1.13;;;;;;;3.17;68.31;98129.19;5036603;28;20064;-71
2022/12/11 10:29:47;;;;;;;0.65;0.65;;;;;;;3.20;68.16;98139.28;5036078;28;20076;-69
2022/12/11 10:32:24;;;;;;;0.70;0.70;;;;;;;3.07;68.72;98114.88;5036254;28;20507;-70
2022/12/11 10:34:59;;;;;;;2.95;2.45;;;;;;;3.20;68.49;98146.84;5036321;28;20124;-70
2022/12/11 10:37:28;;;;;;;0.60;0.60;;;;;;;3.20;68.39;98135.09;5036260;28;20041;-69
2022/12/11 10:39:57;;;;;;;1.77;1.67;;;;;;;3.21;67.79;98140.97;5035803;28;20120;-69
2022/12/11 10:42:27;;;;;;;3.67;0.98;;;;;;;3.24;68.01;98138.44;5035267;28;20037;-69
2022/12/11 10:44:58;;;;;;;3.55;3.25;;;;;;;3.19;67.45;98132.56;5036016;28;20050;-69
2022/12/11 10:47:27;;;;;;;5.65;4.57;;;;;;;3.28;67.61;98142.69;5017838;28;20046;-69
2022/12/11 10:49:59;;;;;;;5.22;3.33;;;;;;;3.33;67.97;98146.06;5035610;28;20136;-69
2022/12/11 10:52:32;;;;;;;1.23;1.13;;;;;;;3.29;67.87;98149.38;5035473;28;20040;-69
2022/12/11 10:55:02;;;;;;;1.00;1.00;;;;;;;3.39;67.73;98162.03;5017956;28;20042;-69
2022/12/11 10:57:36;;;;;;;1.38;1.27;;;;;;;3.45;67.74;98161.22;5035757;28;20045;-69
2022/12/11 11:00:08;;;;;;;1.70;1.60;;;;;;;3.46;66.84;98157.84;5035514;28;20567;-69
2022/12/11 11:02:39;;;;;;;1.52;1.42;;;;;;;3.52;67.28;98149.47;5035363;28;20050;-69
2022/12/11 11:05:13;;;;;;;0.73;0.73;;;;;;;3.51;66.95;98141.03;5018107;28;20042;-69
2022/12/11 11:07:42;;;;;;;0.50;0.50;;;;;;;3.43;66.86;98122.56;5035372;28;20136;-70
2022/12/11 11:10:16;;;;;;;4.85;3.10;;;;;;;3.46;66.49;98141.84;5035480;28;20079;-68
2022/12/11 11:12:49;;;;;;;0.57;0.57;;;;;;;3.47;66.77;98139.38;5035217;28;20053;-69
2022/12/11 11:15:20;;;;;;;1.98;1.88;;;;;;;3.45;66.82;98146.09;5035155;28;20048;-70
2022/12/11 11:17:52;;;;;;;0.90;0.90;;;;;;;3.46;66.45;98140.19;5035443;28;20050;-72
2022/12/11 11:20:26;;;;;;;0.73;0.73;;;;;;;3.42;66.21;98138.50;5035309;28;20049;-67
2022/12/11 11:22:58;;;;;;;0.50;0.50;;;;;;;3.13;66.35;98087.16;5034992;28;20132;-69
2022/12/11 11:25:29;;;;;;;0.60;0.60;;;;;;;3.19;66.85;98102.31;5017973;28;20049;-69
2022/12/11 11:28:06;;;;;;;0.50;0.50;;;;;;;3.47;66.69;98141.03;5034922;28;20053;-69
2022/12/11 11:30:38;;;;;;;0.80;0.80;;;;;;;3.51;66.41;98130.97;5034914;28;20041;-70
2022/12/11 11:33:14;;;;;;;0.55;0.55;;;;;;;3.45;66.16;98135.16;5034837;28;20077;-69
2022/12/11 11:35:52;;;;;;;0.40;0.40;;;;;;;3.40;66.52;98142.72;5034842;28;20395;-70
2022/12/11 11:38:25;;;;;;;4.25;2.30;;;;;;;3.44;66.49;98154.47;5034774;28;20055;-69
2022/12/11 11:40:59;;;;;;;0.70;0.60;;;;;;;3.46;66.53;98167.06;5034566;28;20042;-69
2022/12/11 11:43:43;;;;;;;0.60;0.60;;;;;;;3.46;66.66;98157.84;5035213;28;20491;-69
2022/12/11 11:46:15;;;;;;;0.80;0.80;;;;;;;3.35;66.26;98167.91;5034580;28;20045;-70
2022/12/11 11:48:53;;;;;;;0.85;0.75;;;;;;;3.36;66.86;98161.16;5034393;28;20120;-69
2022/12/11 11:51:27;;;;;;;1.15;1.05;;;;;;;3.23;66.29;98155.25;5034825;28;20065;-69
2022/12/11 11:54:00;;;;;;;1.38;1.27;;;;;;;3.30;66.08;98171.25;5033635;28;20048;-70
2022/12/11 11:56:35;;;;;;;1.38;1.30;;;;;;;3.36;65.99;98168.72;5034777;28;20041;-70
2022/12/11 11:59:16;;;;;;;0.60;0.60;;;;;;;3.38;66.04;98169.59;5034375;28;20045;-70
2022/12/11 12:01:45;;;;;;;0.50;0.50;;;;;;;3.37;65.77;98163.72;5034234;28;20056;-69
2022/12/11 12:04:14;;;;;;;1.13;1.08;;;;;;;3.34;65.92;98162.84;5034371;28;20438;-69
2022/12/11 12:07:02;;;;;;;0.60;0.60;;;;;;;3.28;65.44;98157.78;5034493;28;20081;-72
2022/12/11 12:09:44;;;;;;;0.65;0.65;;;;;;;3.21;66.06;98146.84;5034197;28;20537;-70
2022/12/11 12:12:28;;;;;;;1.60;1.48;;;;;;;3.29;65.46;98169.53;5034095;28;20491;-69